createdAt,value
2022-10-19T00:00:51.379Z,102077.81
2022-10-19T00:03:20.764Z,102078.53
2022-10-19T00:05:49.603Z,102077.56
2022-10-19T00:08:16.013Z,102078.38
2022-10-19T00:10:42.484Z,102071.47
2022-10-19T00:13:08.910Z,102075.78
2022-10-19T00:15:39.322Z,102083.50
2022-10-19T00:18:05.952Z,102085.13
2022-10-19T00:20:32.361Z,102078.94
2022-10-19T00:22:58.769Z,102083.25
2022-10-19T00:25:25.166Z,102080.53
2022-10-19T00:27:51.565Z,102076.16
2022-10-19T00:30:17.966Z,102076.97
2022-10-19T00:32:44.406Z,102079.47
2022-10-19T00:35:10.832Z,102072.41
2022-10-19T00:37:37.272Z,102083.63
2022-10-19T00:40:04.288Z,102078.34
2022-10-19T00:42:31.013Z,102079.16
2022-10-19T00:45:00.036Z,102081.84
2022-10-19T00:47:26.913Z,102087.84
2022-10-19T00:49:53.871Z,102086.97
2022-10-19T00:52:22.195Z,102087.84
2022-10-19T00:54:49.587Z,102087.84
2022-10-19T00:57:16.225Z,102089.63
2022-10-19T00:59:44.606Z,102083.47
2022-10-19T01:02:11.121Z,102089.56
2022-10-19T01:04:40.468Z,102087.84
2022-10-19T01:07:08.150Z,102097.34
2022-10-19T01:09:34.772Z,102095.66
2022-10-19T01:12:15.897Z,102095.66
2022-10-19T01:14:48.245Z,102092.16
2022-10-19T01:17:31.572Z,102090.44
2022-10-19T01:20:20.881Z,102080.94
2022-10-19T01:23:13.656Z,102075.84
2022-10-19T01:26:11.140Z,102080.22
2022-10-19T01:29:15.197Z,102071.63
2022-10-19T01:31:50.710Z,102075.19
2022-10-19T01:34:23.293Z,102072.75
2022-10-19T01:36:54.976Z,102077.16
2022-10-19T01:39:30.794Z,102070.25
2022-10-19T01:42:01.568Z,102070.34
2022-10-19T01:44:34.545Z,102057.44
2022-10-19T01:47:13.474Z,102054.91
2022-10-19T01:49:55.686Z,102047.19
2022-10-19T01:52:23.565Z,102044.69
2022-10-19T01:54:59.785Z,102054.25
2022-10-19T01:57:38.954Z,102055.22
2022-10-19T02:00:07.568Z,102048.31
2022-10-19T02:02:36.853Z,102058.03
2022-10-19T02:05:04.786Z,102052.91
2022-10-19T02:07:31.928Z,102041.78
2022-10-19T02:09:58.368Z,102046.22
2022-10-19T02:12:25.782Z,102037.69
2022-10-19T02:14:56.768Z,102036.88
2022-10-19T02:17:29.618Z,102043.88
2022-10-19T02:19:57.284Z,102046.53
2022-10-19T02:22:23.782Z,102043.16
2022-10-19T02:24:50.493Z,102043.16
2022-10-19T02:27:17.475Z,102047.63
2022-10-19T02:29:43.878Z,102054.59
2022-10-19T02:32:10.611Z,102051.19
2022-10-19T02:34:37.655Z,102051.19
2022-10-19T02:37:04.932Z,102052.16
2022-10-19T02:39:31.817Z,102058.19
2022-10-19T02:42:07.118Z,102055.72
2022-10-19T02:44:57.359Z,102057.44
2022-10-19T02:47:39.272Z,102051.34
2022-10-19T02:50:06.834Z,102049.72
2022-10-19T02:52:33.316Z,102048.91
2022-10-19T02:54:59.745Z,102052.47
2022-10-19T02:57:26.155Z,102050.06
2022-10-19T02:59:52.801Z,102059.72
2022-10-19T03:02:20.487Z,102052.00
2022-10-19T03:07:20.330Z,102061.81
2022-10-19T03:09:46.905Z,102050.72
2022-10-19T03:12:14.091Z,102057.78
2022-10-19T03:14:40.550Z,102059.41
2022-10-19T03:17:07.005Z,102056.94
2022-10-19T03:19:34.853Z,102059.56
2022-10-19T03:22:02.287Z,102069.13
2022-10-19T03:24:30.166Z,102071.81
2022-10-19T03:26:57.590Z,102066.63
2022-10-19T03:29:25.076Z,102066.63
2022-10-19T03:31:51.570Z,102064.97
2022-10-19T03:34:18.019Z,102067.66
2022-10-19T03:36:44.466Z,102070.25
2022-10-19T03:39:13.501Z,102075.53
2022-10-19T03:41:40.199Z,102075.53
2022-10-19T03:44:07.619Z,102082.53
2022-10-19T03:46:34.520Z,102086.06
2022-10-19T03:49:01.264Z,102079.22
2022-10-19T03:51:29.040Z,102083.53
2022-10-19T03:53:57.675Z,102084.41
2022-10-19T03:56:25.972Z,102082.72
2022-10-19T03:58:53.857Z,102087.91
2022-10-19T04:01:29.309Z,102091.47
2022-10-19T04:04:04.834Z,102095.88
2022-10-19T04:06:34.954Z,102098.47
2022-10-19T04:09:01.957Z,102090.66
2022-10-19T04:11:29.962Z,102100.34
2022-10-19T04:13:57.735Z,102096.03
2022-10-19T04:16:25.395Z,102096.09
2022-10-19T04:18:52.152Z,102102.28
2022-10-19T04:21:33.156Z,102105.75
2022-10-19T04:24:11.871Z,102105.75
2022-10-19T04:26:40.691Z,102107.59
2022-10-19T04:29:07.521Z,102102.38
2022-10-19T04:31:34.247Z,102099.78
2022-10-19T04:34:00.641Z,102109.38
2022-10-19T04:36:27.072Z,102115.47
2022-10-19T04:38:53.545Z,102114.47
2022-10-19T04:41:21.065Z,102110.97
2022-10-19T04:43:48.603Z,102121.22
2022-10-19T04:46:18.097Z,102117.72
2022-10-19T04:48:45.634Z,102124.63
2022-10-19T04:51:12.608Z,102120.31
2022-10-19T04:53:40.732Z,102120.19
2022-10-19T04:56:09.175Z,102118.22
2022-10-19T04:58:35.640Z,102118.22
2022-10-19T05:01:12.646Z,102122.69
2022-10-19T05:03:39.273Z,102121.88
2022-10-19T05:06:06.614Z,102121.06
2022-10-19T05:08:33.681Z,102118.38
2022-10-19T05:11:05.983Z,102108.81
2022-10-19T05:13:33.165Z,102119.28
2022-10-19T05:16:00.844Z,102128.06
2022-10-19T05:18:27.288Z,102122.84
2022-10-19T05:21:04.473Z,102121.16
2022-10-19T05:26:06.458Z,102116.84
2022-10-19T05:28:33.025Z,102119.44
2022-10-19T05:31:13.974Z,102126.41
2022-10-19T05:33:40.955Z,102123.00
2022-10-19T05:36:26.171Z,102123.91
2022-10-19T05:38:54.236Z,102125.69
2022-10-19T05:41:21.824Z,102123.97
2022-10-19T05:43:52.725Z,102134.50
2022-10-19T05:46:19.158Z,102123.28
2022-10-19T05:48:46.278Z,102126.75
2022-10-19T05:51:14.661Z,102127.56
2022-10-19T05:53:41.822Z,102125.94
2022-10-19T05:56:11.362Z,102131.16
2022-10-19T05:58:37.775Z,102131.31
2022-10-19T06:01:04.274Z,102128.69
2022-10-19T06:03:30.948Z,102134.88
2022-10-19T06:05:57.932Z,102138.28
2022-10-19T06:08:24.926Z,102138.38
2022-10-19T06:10:51.680Z,102130.63
2022-10-19T06:13:19.057Z,102126.31
2022-10-19T06:15:45.474Z,102128.13
2022-10-19T06:18:12.894Z,102131.59
2022-10-19T06:20:41.622Z,102142.00
2022-10-19T06:23:08.662Z,102143.72
2022-10-19T06:25:36.040Z,102144.63
2022-10-19T06:28:02.938Z,102142.91
2022-10-19T06:30:29.451Z,102148.22
2022-10-19T06:32:56.024Z,102160.41
2022-10-19T06:35:22.845Z,102154.41
2022-10-19T06:37:49.425Z,102157.00
2022-10-19T06:40:15.936Z,102163.09
2022-10-19T06:42:42.365Z,102163.16
2022-10-19T06:45:10.047Z,102166.66
2022-10-19T06:47:37.184Z,102169.34
2022-10-19T06:50:05.635Z,102174.56
2022-10-19T06:52:33.215Z,102167.56
2022-10-19T06:54:59.853Z,102170.16
2022-10-19T06:57:26.627Z,102168.53
2022-10-19T06:59:53.775Z,102171.94
2022-10-19T07:02:20.500Z,102172.75
2022-10-19T07:04:46.972Z,102173.72
2022-10-19T07:07:13.393Z,102172.91
2022-10-19T07:09:39.841Z,102173.88
2022-10-19T07:12:06.358Z,102172.19
2022-10-19T07:14:38.524Z,102170.56
2022-10-19T07:17:08.433Z,102175.06
2022-10-19T07:19:34.951Z,102176.69
2022-10-19T07:22:01.423Z,102179.34
2022-10-19T07:24:27.850Z,102176.84
2022-10-19T07:26:54.256Z,102182.22
2022-10-19T07:29:20.844Z,102186.59
2022-10-19T07:31:47.266Z,102187.56
2022-10-19T07:34:14.378Z,102187.56
2022-10-19T07:36:44.903Z,102196.34
2022-10-19T07:39:12.543Z,102193.75
2022-10-19T07:41:39.133Z,102195.72
2022-10-19T07:44:05.846Z,102197.72
2022-10-19T07:46:33.781Z,102199.59
2022-10-19T07:49:00.900Z,102199.94
2022-10-19T07:53:59.237Z,102191.66
2022-10-19T07:56:26.796Z,102204.06
2022-10-19T07:58:55.190Z,102205.03
2022-10-19T08:01:29.682Z,102199.97
2022-10-19T08:04:48.648Z,102198.25
2022-10-19T08:06:44.060Z,102208.81
2022-10-19T08:09:15.646Z,102205.47
2022-10-19T08:11:49.366Z,102217.69
2022-10-19T08:14:15.815Z,102199.53
2022-10-19T08:16:44.265Z,102209.28
2022-10-19T08:19:12.852Z,102212.03
2022-10-19T08:21:41.439Z,102214.84
2022-10-19T08:24:08.268Z,102215.03
2022-10-19T08:26:37.655Z,102220.31
2022-10-19T08:29:06.132Z,102221.22
2022-10-19T08:31:32.696Z,102223.22
2022-10-19T08:33:59.521Z,102222.47
2022-10-19T08:36:26.106Z,102221.81
2022-10-19T08:38:53.077Z,102219.28
2022-10-19T08:41:25.627Z,102212.50
2022-10-19T08:44:13.894Z,102223.16
2022-10-19T08:46:49.294Z,102225.09
2022-10-19T08:49:19.370Z,102233.13
2022-10-19T08:51:50.274Z,102236.72
2022-10-19T08:54:18.167Z,102229.78
2022-10-19T08:57:00.295Z,102228.13
2022-10-19T08:59:30.032Z,102229.03
2022-10-19T09:02:00.048Z,102241.19
2022-10-19T09:04:33.739Z,102232.38
2022-10-19T09:07:23.835Z,102234.16
2022-10-19T09:10:13.231Z,102227.50
2022-10-19T09:12:52.867Z,102235.53
2022-10-19T09:15:29.092Z,102233.13
2022-10-19T09:17:55.530Z,102234.91
2022-10-19T09:20:41.924Z,102232.53
2022-10-19T09:23:28.766Z,102236.22
2022-10-19T09:25:56.156Z,102244.25
2022-10-19T09:28:39.691Z,102243.22
2022-10-19T09:31:13.321Z,102244.31
2022-10-19T09:33:40.843Z,102240.03
2022-10-19T09:36:07.920Z,102247.09
2022-10-19T09:38:34.469Z,102242.09
2022-10-19T09:41:22.500Z,102241.19
2022-10-19T09:43:53.786Z,102231.59
2022-10-19T09:46:38.981Z,102234.34
2022-10-19T09:49:06.112Z,102227.75
2022-10-19T09:51:50.402Z,102242.03
2022-10-19T09:54:26.512Z,102233.69
2022-10-19T09:56:55.007Z,102227.78
2022-10-19T09:59:23.274Z,102222.69
2022-10-19T10:02:16.281Z,102223.69
2022-10-19T10:04:46.017Z,102234.31
2022-10-19T10:07:17.505Z,102227.38
2022-10-19T10:09:44.811Z,102224.91
2022-10-19T10:12:14.581Z,102218.84
2022-10-19T10:14:41.285Z,102218.16
2022-10-19T10:17:16.168Z,102216.59
2022-10-19T10:19:57.780Z,102223.81
2022-10-19T10:22:30.036Z,102229.09
2022-10-19T10:24:56.906Z,102224.00
2022-10-19T10:27:35.725Z,102226.00
2022-10-19T10:30:19.547Z,102224.47
2022-10-19T10:32:49.600Z,102225.59
2022-10-19T10:35:39.398Z,102231.91
2022-10-19T10:38:17.286Z,102227.63
2022-10-19T10:40:51.993Z,102222.53
2022-10-19T10:43:21.276Z,102212.09
2022-10-19T10:45:53.103Z,102212.25
2022-10-19T10:48:31.553Z,102208.09
2022-10-19T10:51:00.042Z,102213.59
2022-10-19T10:53:39.063Z,102213.03
2022-10-19T10:56:10.295Z,102209.72
2022-10-19T10:58:49.775Z,102222.13
2022-10-19T11:01:20.150Z,102210.88
2022-10-19T11:03:55.902Z,102206.69
2022-10-19T11:09:11.290Z,102216.06
2022-10-19T11:11:44.882Z,102203.94
2022-10-19T11:14:32.786Z,102208.00
2022-10-19T11:17:05.168Z,102213.28
2022-10-19T11:19:31.566Z,102209.09
2022-10-19T11:22:37.688Z,102212.84
2022-10-19T11:25:44.049Z,102207.00
2022-10-19T11:28:45.722Z,102205.41
2022-10-19T11:31:16.514Z,102204.69
2022-10-19T11:36:23.130Z,102201.50
2022-10-19T11:39:24.369Z,102203.41
2022-10-19T11:42:09.013Z,102202.47
2022-10-19T11:45:00.237Z,102197.22
2022-10-19T11:47:29.306Z,102198.84
2022-10-19T11:50:31.083Z,102198.91
2022-10-19T11:53:12.427Z,102196.34
2022-10-19T11:55:51.444Z,102184.03
2022-10-19T11:58:33.719Z,102180.59
2022-10-19T12:01:07.072Z,102174.53
2022-10-19T12:03:33.432Z,102183.44
2022-10-19T12:06:10.964Z,102164.41
2022-10-19T12:08:57.110Z,102168.13
2022-10-19T12:11:41.995Z,102167.41
2022-10-19T12:14:13.922Z,102168.41
2022-10-19T12:16:43.494Z,102164.94
2022-10-19T12:19:17.634Z,102157.88
2022-10-19T12:21:44.537Z,102158.78
2022-10-19T12:24:17.710Z,102155.25
2022-10-19T12:26:45.447Z,102156.22
2022-10-19T12:29:16.205Z,102150.97
2022-10-19T12:31:43.011Z,102149.25
2022-10-19T12:34:47.250Z,102151.03
2022-10-19T12:37:28.344Z,102136.19
2022-10-19T12:39:57.641Z,102138.78
2022-10-19T12:42:35.178Z,102135.28
2022-10-19T12:45:23.722Z,102134.59
2022-10-19T12:48:25.474Z,102128.53
2022-10-19T12:50:56.660Z,102120.69
2022-10-19T12:53:37.972Z,102108.50
2022-10-19T12:56:13.583Z,102105.94
2022-10-19T12:58:47.954Z,102099.88
2022-10-19T13:01:21.452Z,102102.59
2022-10-19T13:03:50.325Z,102097.59
2022-10-19T13:06:22.875Z,102092.59
2022-10-19T13:08:57.829Z,102086.47
2022-10-19T13:11:24.490Z,102086.50
2022-10-19T13:14:04.185Z,102092.69
2022-10-19T13:16:41.853Z,102085.78
2022-10-19T13:19:14.186Z,102078.97
2022-10-19T13:21:48.432Z,102074.63
2022-10-19T13:24:23.897Z,102085.09
2022-10-19T13:27:02.474Z,102079.00
2022-10-19T13:29:41.146Z,102084.25
2022-10-19T13:32:35.753Z,102088.59
2022-10-19T13:35:24.648Z,102091.19
2022-10-19T13:38:09.310Z,102084.13
2022-10-19T13:40:55.733Z,102078.78
2022-10-19T13:43:26.303Z,102083.91
2022-10-19T13:46:07.762Z,102091.69
2022-10-19T13:48:38.640Z,102087.25
2022-10-19T13:51:18.029Z,102088.13
2022-10-19T13:54:07.094Z,102087.25
2022-10-19T13:57:05.980Z,102086.31
2022-10-19T13:59:56.119Z,102081.91
2022-10-19T14:02:41.275Z,102088.88
2022-10-19T14:05:44.159Z,102094.00
2022-10-19T14:08:34.948Z,102086.94
2022-10-19T14:11:19.922Z,102092.13
2022-10-19T14:13:47.310Z,102092.00
2022-10-19T14:16:21.318Z,102081.56
2022-10-19T14:18:55.727Z,102082.38
2022-10-19T14:21:36.928Z,102077.16
2022-10-19T14:24:19.474Z,102070.16
2022-10-19T14:26:46.217Z,102069.19
2022-10-19T14:29:12.900Z,102069.91
2022-10-19T14:31:39.409Z,102068.13
2022-10-19T14:34:08.688Z,102074.19
2022-10-19T14:36:37.740Z,102074.97
2022-10-19T14:39:05.239Z,102069.63
2022-10-19T14:41:36.508Z,102068.63
2022-10-19T14:44:28.067Z,102078.94
2022-10-19T14:46:54.534Z,102070.03
2022-10-19T14:49:21.011Z,102065.53
2022-10-19T14:52:05.843Z,102079.31
2022-10-19T14:54:42.064Z,102072.13
2022-10-19T14:57:13.214Z,102065.91
2022-10-19T14:59:51.011Z,102064.81
2022-10-19T15:02:31.355Z,102070.81
2022-10-19T15:05:00.069Z,102070.75
2022-10-19T15:07:38.327Z,102068.97
2022-10-19T15:10:31.254Z,102071.53
2022-10-19T15:13:05.365Z,102074.91
2022-10-19T15:15:33.997Z,102069.69
2022-10-19T15:18:00.442Z,102067.91
2022-10-19T15:20:48.995Z,102065.16
2022-10-19T15:23:41.118Z,102065.03
2022-10-19T15:26:19.998Z,102064.94
2022-10-19T15:28:47.840Z,102056.97
2022-10-19T15:31:26.741Z,102062.94
2022-10-19T15:33:55.684Z,102060.13
2022-10-19T15:36:23.218Z,102059.88
2022-10-19T15:39:11.164Z,102064.16
2022-10-19T15:41:45.077Z,102060.56
2022-10-19T15:44:34.347Z,102058.66
2022-10-19T15:47:19.144Z,102060.31
2022-10-19T15:49:45.761Z,102055.88
2022-10-19T15:52:36.340Z,102064.47
2022-10-19T15:55:02.890Z,102066.94
2022-10-19T15:57:33.451Z,102067.72
2022-10-19T16:00:15.257Z,102065.88
2022-10-19T16:02:41.749Z,102059.69
2022-10-19T16:05:08.785Z,102058.75
2022-10-19T16:07:37.850Z,102055.09
2022-10-19T16:10:05.223Z,102059.31
2022-10-19T16:12:31.655Z,102059.19
2022-10-19T16:14:58.111Z,102052.06
2022-10-19T16:17:24.514Z,102046.63
2022-10-19T16:19:51.223Z,102054.38
2022-10-19T16:22:17.687Z,102051.66
2022-10-19T16:24:44.147Z,102055.03
2022-10-19T16:27:14.995Z,102056.63
2022-10-19T16:29:42.838Z,102048.59
2022-10-19T16:32:09.532Z,102057.19
2022-10-19T16:34:35.983Z,102057.88
2022-10-19T16:37:05.735Z,102063.78
2022-10-19T16:39:33.632Z,102066.25
2022-10-19T16:42:00.298Z,102060.78
2022-10-19T16:44:26.767Z,102057.88
2022-10-19T16:46:53.212Z,102057.56
2022-10-19T16:49:19.633Z,102065.09
2022-10-19T16:51:46.056Z,102066.53
2022-10-19T16:54:13.072Z,102067.94
2022-10-19T16:56:45.175Z,102065.00
2022-10-19T16:59:16.986Z,102061.13
2022-10-19T17:01:45.090Z,102058.25
2022-10-19T17:04:12.659Z,102058.03
2022-10-19T17:06:39.468Z,102062.09
2022-10-19T17:11:52.436Z,102059.72
2022-10-19T17:14:19.120Z,102062.94
2022-10-19T17:16:45.568Z,102057.50
2022-10-19T17:19:12.054Z,102062.44
2022-10-19T17:21:39.234Z,102063.19
2022-10-19T17:24:07.441Z,102062.94
2022-10-19T17:26:45.127Z,102061.91
2022-10-19T17:29:14.066Z,102064.31
2022-10-19T17:31:41.454Z,102063.97
2022-10-19T17:34:08.430Z,102063.84
2022-10-19T17:36:41.930Z,102071.44
2022-10-19T17:39:13.106Z,102071.13
2022-10-19T17:41:39.569Z,102064.72
2022-10-19T17:44:06.269Z,102075.78
2022-10-19T17:46:34.670Z,102069.47
2022-10-19T17:49:01.096Z,102067.53
2022-10-19T17:51:30.022Z,102065.47
2022-10-19T17:53:58.486Z,102065.25
2022-10-19T17:56:25.464Z,102060.63
2022-10-19T17:58:52.000Z,102062.09
2022-10-19T18:01:20.142Z,102067.16
2022-10-19T18:03:46.928Z,102070.34
2022-10-19T18:06:19.146Z,102074.53
2022-10-19T18:08:48.646Z,102076.03
2022-10-19T18:11:30.650Z,102071.50
2022-10-19T18:13:59.385Z,102074.72
2022-10-19T18:16:29.720Z,102066.69
2022-10-19T18:18:59.675Z,102066.47
2022-10-19T18:21:35.830Z,102067.91
2022-10-19T18:24:03.565Z,102070.19
2022-10-19T18:26:32.884Z,102070.78
2022-10-19T18:29:04.638Z,102069.69
2022-10-19T18:31:33.369Z,102068.56
2022-10-19T18:34:02.766Z,102065.66
2022-10-19T18:36:29.761Z,102069.69
2022-10-19T18:39:01.487Z,102066.06
2022-10-19T18:41:29.709Z,102070.19
2022-10-19T18:44:05.052Z,102059.59
2022-10-19T18:46:36.137Z,102070.66
2022-10-19T18:49:05.349Z,102064.50
2022-10-19T18:51:31.972Z,102059.94
2022-10-19T18:53:58.846Z,102067.38
2022-10-19T18:56:25.384Z,102061.06
2022-10-19T18:58:51.788Z,102061.78
2022-10-19T19:01:24.018Z,102059.88
2022-10-19T19:03:52.589Z,102057.06
2022-10-19T19:06:22.129Z,102061.28
2022-10-19T19:08:49.607Z,102060.28
2022-10-19T19:11:18.536Z,102070.44
2022-10-19T19:13:55.751Z,102057.16
2022-10-19T19:16:22.448Z,102060.38
2022-10-19T19:18:48.887Z,102061.94
2022-10-19T19:21:23.680Z,102052.97
2022-10-19T19:23:50.684Z,102058.81
2022-10-19T19:26:17.560Z,102066.34
2022-10-19T19:28:47.621Z,102073.84
2022-10-19T19:31:18.261Z,102068.31
2022-10-19T19:33:45.477Z,102070.81
2022-10-19T19:36:13.217Z,102068.97
2022-10-19T19:38:40.132Z,102081.63
2022-10-19T19:41:08.058Z,102076.03
2022-10-19T19:43:37.009Z,102072.97
2022-10-19T19:46:08.145Z,102071.91
2022-10-19T19:48:36.591Z,102066.34
2022-10-19T19:51:03.148Z,102069.56
2022-10-19T19:53:30.724Z,102068.50
2022-10-19T19:55:57.199Z,102066.72
2022-10-19T19:58:23.642Z,102065.81
2022-10-19T20:00:50.077Z,102058.66
2022-10-19T20:03:16.535Z,102060.25
2022-10-19T20:05:43.000Z,102063.47
2022-10-19T20:08:09.885Z,102062.41
2022-10-19T20:10:39.962Z,102062.31
2022-10-19T20:13:06.675Z,102064.91
2022-10-19T20:15:33.149Z,102063.00
2022-10-19T20:17:59.613Z,102063.72
2022-10-19T20:20:26.002Z,102057.38
2022-10-19T20:22:52.422Z,102056.41
2022-10-19T20:25:18.838Z,102055.41
2022-10-19T20:27:45.250Z,102052.53
2022-10-19T20:30:11.830Z,102051.63
2022-10-19T20:32:38.378Z,102041.19
2022-10-19T20:35:05.313Z,102037.53
2022-10-19T20:37:32.287Z,102043.50
2022-10-19T20:39:58.676Z,102032.97
2022-10-19T20:42:25.335Z,102032.75
2022-10-19T20:44:54.684Z,102032.47
2022-10-19T20:47:21.161Z,102034.91
2022-10-19T20:49:47.847Z,102036.41
2022-10-19T20:52:14.269Z,102032.63
2022-10-19T20:54:40.670Z,102033.25
2022-10-19T20:57:07.065Z,102029.69
2022-10-19T20:59:33.533Z,102031.28
2022-10-19T21:01:59.958Z,102028.47
2022-10-19T21:04:26.762Z,102024.91
2022-10-19T21:06:53.200Z,102022.09
2022-10-19T21:09:21.615Z,102021.91
2022-10-19T21:11:50.110Z,102018.34
2022-10-19T21:14:21.248Z,102018.94
2022-10-19T21:16:50.317Z,102018.75
2022-10-19T21:19:19.183Z,102010.00
2022-10-19T21:21:51.778Z,102018.38
2022-10-19T21:24:26.995Z,102021.78
2022-10-19T21:26:54.013Z,102021.56
2022-10-19T21:29:20.555Z,102021.38
2022-10-19T21:31:49.220Z,102009.03
2022-10-19T21:34:21.931Z,102010.56
2022-10-19T21:36:48.677Z,102005.06
2022-10-19T21:39:15.211Z,101996.22
2022-10-19T21:41:41.665Z,102003.91
2022-10-19T21:44:08.423Z,101993.34
2022-10-19T21:46:34.878Z,102002.69
2022-10-19T21:49:01.302Z,101990.38
2022-10-19T21:51:37.475Z,101998.75
2022-10-19T21:54:05.734Z,102001.16
2022-10-19T21:56:32.871Z,101999.94
2022-10-19T21:58:59.341Z,102005.72
2022-10-19T22:01:28.037Z,102004.41
2022-10-19T22:03:58.535Z,101999.16
2022-10-19T22:06:27.306Z,102005.91
2022-10-19T22:08:54.086Z,101997.16
2022-10-19T22:11:21.101Z,102003.16
2022-10-19T22:13:47.659Z,102004.66
2022-10-19T22:16:19.641Z,101999.28
2022-10-19T22:18:46.935Z,102012.88
2022-10-19T22:21:15.961Z,102004.03
2022-10-19T22:23:43.098Z,102004.56
2022-10-19T22:26:17.932Z,101999.16
2022-10-19T22:28:44.949Z,102006.81
2022-10-19T22:31:12.051Z,101995.56
2022-10-19T22:33:38.703Z,101992.78
2022-10-19T22:36:07.858Z,102002.25
2022-10-19T22:38:36.304Z,101993.59
2022-10-19T22:41:02.744Z,101985.75
2022-10-19T22:43:29.192Z,101980.47
2022-10-19T22:45:55.605Z,101991.63
2022-10-19T22:48:22.072Z,101988.94
2022-10-19T22:50:48.620Z,101988.03
2022-10-19T22:53:15.129Z,101982.63
2022-10-19T22:55:41.614Z,101975.59
2022-10-19T22:58:08.406Z,101973.00
2022-10-19T23:00:34.969Z,101972.09
2022-10-19T23:03:01.570Z,101967.81
2022-10-19T23:05:28.123Z,101970.41
2022-10-19T23:07:54.587Z,101969.41
2022-10-19T23:10:21.105Z,101968.53
2022-10-19T23:12:52.036Z,101956.41
2022-10-19T23:15:19.176Z,101959.78
2022-10-19T23:17:45.648Z,101960.47
2022-10-19T23:20:12.979Z,101955.97
2022-10-19T23:22:40.159Z,101950.81
2022-10-19T23:25:07.117Z,101947.22
2022-10-19T23:27:33.806Z,101940.28
2022-10-19T23:30:00.647Z,101936.00
2022-10-19T23:32:27.088Z,101937.78
2022-10-19T23:34:53.660Z,101941.16
2022-10-19T23:37:20.172Z,101937.69
2022-10-19T23:39:46.693Z,101949.03
2022-10-19T23:42:13.199Z,101942.94
2022-10-19T23:44:39.701Z,101943.75
2022-10-19T23:47:06.149Z,101949.03
2022-10-19T23:49:32.628Z,101955.97
2022-10-19T23:51:59.090Z,101946.53
2022-10-19T23:54:25.572Z,101943.84
2022-10-19T23:56:52.052Z,101947.22
2022-10-19T23:59:18.489Z,101940.28
